Stations météo

réclame
Mon MeteoGroup
Herwijnen aws, Pays-Bas (6356): Température de l'air & dewpoint: 03.12.2019 21:00:00 - 09.12.2019 21:00:00 (CET)Herwijnen aws, Pays-Bas (6356): Température de l'air 5cm: 03.12.2019 21:00:00 - 09.12.2019 21:00:00 (CET)Herwijnen aws, Pays-Bas (6356): Vitesse du vent & gusts: 03.12.2019 21:00:00 - 09.12.2019 21:00:00 (CET)Herwijnen aws, Pays-Bas (6356): Direction du vent: 03.12.2019 21:00:00 - 09.12.2019 21:00:00 (CET)Herwijnen aws, Pays-Bas (6356): reduced air pressure: 03.12.2019 21:00:00 - 09.12.2019 21:00:00 (CET)Herwijnen aws, Pays-Bas (6356): Quantités de précipitations: 03.12.2019 21:00:00 - 09.12.2019 21:00:00 (CET)
Date & Time tt [°C] td [°C] tt 5cm [°C] ff [km/h] ff [knt] fx [km/h] fx [knt] dd ppp [hPa] rr [mm]
09.12.2019 21:00:00 - - - - - - - - - -
09.12.2019 20:00:00 5,5 1,9 4,5 18 10 32 18 NW 1015,5 0,0
09.12.2019 19:00:00 6,2 1,4 5,3 22 12 36 19 NW 1013,7 0,0
09.12.2019 18:00:00 6,5 2,5 5,6 22 12 43 23 NNW 1011,5 0,0
09.12.2019 17:00:00 7,3 4,1 6,6 25 14 47 25 NNW 1008,9 0,1
09.12.2019 16:00:00 7,0 4,3 6,6 29 16 61 33 NNW 1006,1 2,2
09.12.2019 15:00:00 7,7 6,6 7,7 18 10 43 23 NW 1002,6 0,1
09.12.2019 14:00:00 7,3 6,0 7,1 11 6 25 14 WNW 1000,0 1,9
09.12.2019 13:00:00 7,8 6,4 7,6 14 8 36 19 W 998,6 0,3
09.12.2019 12:00:00 7,7 6,8 7,7 14 8 32 18 WSW 998,1 0,5
09.12.2019 11:00:00 7,7 6,3 7,8 22 12 32 18 W 997,4 0,1
09.12.2019 10:00:00 6,5 5,7 6,1 18 10 25 14 W 995,8 0,0
09.12.2019 09:00:00 6,2 5,7 5,7 18 10 29 16 W 994,2 0,0
09.12.2019 08:00:00 6,1 5,7 5,9 11 6 22 12 WSW 992,8 0,0
09.12.2019 07:00:00 5,5 5,1 5,4 14 8 36 19 SSE 992,0 0,6
09.12.2019 06:00:00 6,1 4,7 5,7 22 12 47 25 SSW 992,7 1,0
09.12.2019 05:00:00 7,1 4,3 6,4 25 14 43 23 SSW 993,0 0,0
09.12.2019 04:00:00 6,7 4,2 6,0 25 14 40 21 SSW 993,8 0,0
09.12.2019 03:00:00 6,6 4,8 6,0 29 16 43 23 SSW 994,7 0,5
09.12.2019 02:00:00 7,0 4,4 6,3 29 16 47 25 SSW 995,4 0,0
09.12.2019 01:00:00 7,2 4,2 6,4 29 16 43 23 SSW 995,8 0,0
09.12.2019 00:00:00 7,3 3,9 6,3 32 18 47 25 SW 996,4 0,0
08.12.2019 23:00:00 6,8 4,1 6,1 25 14 47 25 SW 996,7 0,0
08.12.2019 22:00:00 7,3 4,4 6,6 32 18 50 27 SW 996,9 0,0
08.12.2019 21:00:00 8,2 4,4 7,5 36 19 50 27 SW 996,7 0,0
08.12.2019 20:00:00 9,1 3,6 8,4 32 18 50 27 SW 997,1 0,0
08.12.2019 19:00:00 9,0 5,4 8,3 29 16 40 21 SW 997,7 0,0
08.12.2019 18:00:00 9,0 5,5 8,0 25 14 43 23 SW 998,4 0,0
08.12.2019 17:00:00 8,6 5,3 7,7 22 12 50 27 SW 998,8 0,0
08.12.2019 16:00:00 9,2 5,7 8,5 29 16 54 29 WSW 999,3 0,0
08.12.2019 15:00:00 9,8 6,7 9,4 32 18 58 31 WSW 999,4 0,0
08.12.2019 14:00:00 10,2 7,1 9,9 32 18 54 29 WSW 999,6 0,0
08.12.2019 13:00:00 10,6 6,7 10,0 40 21 61 33 WSW 999,7 0,0
08.12.2019 12:00:00 10,7 9,1 10,3 36 19 61 33 WSW 999,6 0,5
08.12.2019 11:00:00 10,5 9,5 9,8 43 23 58 31 SW 999,3 0,4
08.12.2019 10:00:00 9,6 9,2 9,3 36 19 54 29 SW 999,7 0,7
08.12.2019 09:00:00 9,3 8,5 9,0 32 18 54 29 SSW 1000,0 0,2
08.12.2019 08:00:00 9,3 7,6 8,9 36 19 54 29 SSW 1000,8 0,9
08.12.2019 07:00:00 9,5 7,8 9,0 32 18 50 27 SSW 1001,2 0,3
08.12.2019 06:00:00 9,9 6,9 9,3 40 21 61 33 SSW 1002,6 0,0
08.12.2019 05:00:00 9,4 6,2 8,7 32 18 54 29 SSW 1003,7 0,0
08.12.2019 04:00:00 9,2 5,8 8,6 32 18 50 27 SSW 1005,5 0,0
08.12.2019 03:00:00 9,2 5,9 8,7 29 16 43 23 SW 1006,9 0,0
08.12.2019 02:00:00 9,4 6,3 8,9 32 18 43 23 SW 1007,9 0,0
08.12.2019 01:00:00 9,3 6,3 8,7 25 14 36 19 SSW 1009,1 0,0
08.12.2019 00:00:00 9,1 6,5 8,6 25 14 40 21 SSW 1010,3 0,0
07.12.2019 23:00:00 8,5 6,6 7,9 22 12 32 18 SSW 1011,3 0,0
07.12.2019 22:00:00 8,3 5,6 7,4 18 10 25 14 SSW 1011,9 0,0
07.12.2019 21:00:00 8,6 5,2 8,0 18 10 29 16 SW 1012,7 0,0
07.12.2019 20:00:00 8,5 5,4 8,0 18 10 32 18 SW 1013,3 0,0
07.12.2019 19:00:00 8,8 6,4 8,4 18 10 29 16 WSW 1013,7 0,0
07.12.2019 18:00:00 8,8 7,1 8,5 18 10 29 16 SW 1013,7 0,0
07.12.2019 17:00:00 8,9 7,0 8,5 22 12 29 16 SW 1013,3 0,0
07.12.2019 16:00:00 9,1 7,3 8,8 22 12 32 18 SW 1013,2 0,0
07.12.2019 15:00:00 9,3 7,7 9,2 22 12 36 19 WSW 1012,9 0,0
07.12.2019 14:00:00 9,4 7,7 9,3 22 12 29 16 WSW 1013,0 0,0
07.12.2019 13:00:00 9,3 7,7 9,2 18 10 32 18 WSW 1013,0 0,0
07.12.2019 12:00:00 9,0 7,7 9,0 22 12 32 18 WSW 1012,5 0,0
07.12.2019 11:00:00 8,8 7,6 8,6 22 12 29 16 WSW 1012,8 0,0
07.12.2019 10:00:00 8,6 7,3 8,3 18 10 25 14 WSW 1012,2 0,0
07.12.2019 09:00:00 8,6 7,3 8,2 18 10 29 16 WSW 1011,7 0,0
07.12.2019 08:00:00 8,5 7,3 8,2 18 10 29 16 WSW 1010,8 0,0
07.12.2019 07:00:00 8,7 7,4 8,3 25 14 36 19 WSW 1010,0 0,0
07.12.2019 06:00:00 8,7 7,4 8,4 22 12 32 18 WSW 1009,4 0,0
07.12.2019 05:00:00 9,0 7,5 8,6 22 12 32 18 WSW 1008,6 0,0
07.12.2019 04:00:00 9,0 7,6 8,6 25 14 36 19 W 1007,8 0,0
07.12.2019 03:00:00 8,9 8,1 8,6 22 12 36 19 W 1006,9 0,2
07.12.2019 02:00:00 9,2 8,1 8,7 25 14 36 19 W 1005,7 0,0
07.12.2019 01:00:00 9,4 7,8 9,0 25 14 43 23 W 1005,0 0,1
07.12.2019 00:00:00 9,0 8,4 8,8 29 16 47 25 W 1004,3 2,0
06.12.2019 23:00:00 8,8 7,4 8,3 29 16 54 29 WSW 1003,1 0,1
06.12.2019 22:00:00 9,7 8,1 8,9 40 21 65 35 WSW 1002,4 1,1
06.12.2019 21:00:00 8,1 7,7 7,7 32 18 47 25 SSW 1001,9 1,4
06.12.2019 20:00:00 7,5 7,3 7,4 29 16 47 25 SSW 1002,6 0,6
06.12.2019 19:00:00 7,6 7,2 7,3 32 18 54 29 SSW 1003,1 0,2
06.12.2019 18:00:00 7,4 7,1 7,3 32 18 50 27 SSW 1003,5 0,1
06.12.2019 17:00:00 7,2 6,8 6,9 32 18 50 27 SSW 1003,8 0,1
06.12.2019 16:00:00 6,9 6,6 6,7 32 18 50 27 SSW 1004,2 0,5
06.12.2019 15:00:00 6,9 6,6 6,7 32 18 50 27 SSW 1004,7 0,4
06.12.2019 14:00:00 6,5 6,3 6,4 32 18 47 25 SSW 1005,8 1,0
06.12.2019 13:00:00 5,9 5,6 5,7 29 16 47 25 SSW 1007,0 1,3
06.12.2019 12:00:00 5,8 5,1 5,5 32 18 58 31 SSW 1007,9 0,2
06.12.2019 11:00:00 5,2 4,6 4,9 29 16 50 27 SSW 1008,9 1,2
06.12.2019 10:00:00 4,6 4,1 4,4 32 18 54 29 SSW 1009,4 1,2
06.12.2019 09:00:00 4,4 3,9 4,3 29 16 50 27 SSW 1009,8 0,8
06.12.2019 08:00:00 4,0 3,5 3,9 32 18 47 25 SSW 1010,2 0,9
06.12.2019 07:00:00 4,0 3,4 3,9 29 16 47 25 SSW 1010,7 0,9
06.12.2019 06:00:00 4,3 3,5 4,1 25 14 43 23 SSW 1011,0 0,3
06.12.2019 05:00:00 4,4 3,4 4,3 29 16 43 23 SSW 1011,3 0,0
06.12.2019 04:00:00 4,2 3,1 3,9 25 14 40 21 SSW 1012,1 0,0
06.12.2019 03:00:00 3,8 3,0 3,6 29 16 43 23 SSW 1012,6 0,0
06.12.2019 02:00:00 3,5 2,7 3,3 29 16 43 23 SSW 1013,1 0,0
06.12.2019 01:00:00 3,3 2,4 3,1 32 18 43 23 SSW 1013,7 0,0
06.12.2019 00:00:00 3,1 2,4 3,0 29 16 47 25 SSW 1014,9 0,0
05.12.2019 23:00:00 3,5 3,1 3,4 25 14 40 21 SSW 1015,8 0,0
05.12.2019 22:00:00 2,7 2,6 2,7 22 12 43 23 SSW 1016,6 0,0
05.12.2019 21:00:00 2,7 2,6 2,8 25 14 43 23 SSW 1016,6 0,0
05.12.2019 20:00:00 3,2 3,0 3,2 22 12 36 19 SSW 1017,1 0,0
05.12.2019 19:00:00 3,5 3,1 3,4 25 14 36 19 SSW 1017,9 0,0
05.12.2019 18:00:00 3,7 3,1 3,6 22 12 32 18 SSW 1018,5 0,0
05.12.2019 17:00:00 3,5 3,2 3,4 18 10 29 16 SSW 1018,8 0,0
05.12.2019 16:00:00 3,3 3,1 3,0 14 8 25 14 SSW 1019,1 0,0
05.12.2019 15:00:00 3,0 3,0 3,1 14 8 22 12 SSW 1019,5 0,0
05.12.2019 14:00:00 2,3 2,3 2,6 14 8 22 12 SSW 1020,1 0,0
05.12.2019 13:00:00 2,1 2,0 2,5 14 8 22 12 SSW 1020,4 0,0
05.12.2019 12:00:00 0,9 0,8 1,2 14 8 29 16 SSW 1020,9 0,0
05.12.2019 11:00:00 0,0 -0,1 0,4 18 10 25 14 SSW 1021,2 0,0
05.12.2019 10:00:00 -0,2 -0,3 0,0 11 6 18 10 SSW 1021,0 0,0
05.12.2019 09:00:00 -0,3 -0,4 -0,1 11 6 18 10 SSW 1021,2 0,0
05.12.2019 08:00:00 0,0 -0,1 0,1 7 4 14 8 SSW 1020,9 0,0
05.12.2019 07:00:00 -0,1 -0,2 0,0 11 6 18 10 SSW 1020,6 0,0
05.12.2019 06:00:00 -0,2 -0,3 -0,1 7 4 14 8 S 1020,3 0,0
05.12.2019 05:00:00 -0,3 -0,4 -0,1 7 4 14 8 SSW 1020,3 0,0
05.12.2019 04:00:00 -0,4 -0,5 -0,3 7 4 11 6 SW 1020,4 0,0
05.12.2019 03:00:00 -1,0 -1,1 -0,7 7 4 14 8 SW 1020,4 0,0
05.12.2019 02:00:00 -0,4 -0,5 -0,2 7 4 22 12 SW 1020,3 0,0
05.12.2019 01:00:00 -0,7 -0,8 -0,5 4 2 11 6 SSE 1020,2 0,0
05.12.2019 00:00:00 -0,6 -0,6 -0,4 4 2 7 4 SE 1020,3 0,0
04.12.2019 23:00:00 -0,2 -0,3 -0,3 4 2 11 6 ESE 1020,6 0,0
04.12.2019 22:00:00 -0,4 -0,5 -0,3 4 2 7 4 ESE 1021,0 0,0
04.12.2019 21:00:00 0,2 0,1 0,1 7 4 14 8 ENE 1021,0 0,0
04.12.2019 20:00:00 0,1 0,0 0,2 7 4 7 4 E 1021,3 0,0
04.12.2019 19:00:00 0,2 0,1 0,3 7 4 14 8 ESE 1021,3 0,0
04.12.2019 18:00:00 0,8 0,7 0,9 11 6 14 8 SE 1021,3 0,0
04.12.2019 17:00:00 1,0 0,9 1,2 11 6 14 8 ESE 1021,1 0,0
04.12.2019 16:00:00 3,6 2,4 3,0 7 4 11 6 E 1021,0 0,0
04.12.2019 15:00:00 6,6 3,4 6,6 4 2 7 4 N 1021,1 0,0
04.12.2019 14:00:00 6,7 3,4 7,5 0 0 4 2 N 1021,5 0,0
04.12.2019 13:00:00 6,0 3,1 6,8 4 2 7 4 S 1022,2 0,0
04.12.2019 12:00:00 4,7 2,7 5,0 7 4 11 6 SE 1022,5 0,0
04.12.2019 11:00:00 3,2 2,0 2,8 7 4 11 6 SSE 1023,3 0,0
04.12.2019 10:00:00 1,1 0,7 0,4 7 4 11 6 SSE 1023,4 0,0
04.12.2019 09:00:00 0,0 -0,1 -2,5 7 4 11 6 SE 1023,1 0,0
04.12.2019 08:00:00 0,2 0,1 -2,8 7 4 11 6 S 1023,1 0,0
04.12.2019 07:00:00 -0,5 -0,6 -2,6 7 4 7 4 SSE 1023,0 0,0
04.12.2019 06:00:00 -1,3 -1,4 -3,0 4 2 7 4 SSE 1023,4 0,0
04.12.2019 05:00:00 -0,2 -0,3 -2,1 7 4 11 6 S 1023,8 0,0
04.12.2019 04:00:00 0,5 0,4 -1,8 7 4 11 6 S 1024,0 0,0
04.12.2019 03:00:00 0,4 0,2 -1,9 7 4 7 4 SSW 1024,5 0,0
04.12.2019 02:00:00 0,3 -0,1 -1,7 7 4 7 4 S 1024,7 0,0
04.12.2019 01:00:00 0,9 0,6 -0,3 4 2 11 6 S 1025,1 0,0
04.12.2019 00:00:00 1,6 1,1 0,3 7 4 14 8 S 1025,7 0,0
03.12.2019 23:00:00 2,0 1,3 0,9 7 4 14 8 S 1025,8 0,0
03.12.2019 22:00:00 2,5 1,8 1,0 7 4 18 10 S 1026,0 0,0
03.12.2019 21:00:00 2,8 2,1 1,6 11 6 18 10 SSW 1026,2 0,0

tt = Température de l'air
td = dewpoint
tt 5cm = Température de l'air 5cm
ff = Vitesse du vent
fx = gusts
dd = Direction du vent
ppp = reduced air pressure
rr = Quantités de précipitations

stations d'obs. à proximité